Time;durP1;ratioP1;P1;durP2;ratioP2;P2;SDS_P1;SDS_P2;PMS_P1;PMS_P2;Temp;Humidity;BMP_temperature;BMP_pressure;BME280_temperature;BME280_humidity;BME280_pressure;Samples;Min_cycle;Max_cycle;Signal;HPM_P1;HPM_P2
2023/07/26 00:01:43;;;;;;;3.65;2.50;;;15.20;99.90;;;;;;5021720;28;20051;-87
2023/07/26 00:04:09;;;;;;;3.65;2.30;;;15.20;99.90;;;;;;5034777;28;20123;-87
2023/07/26 00:06:35;;;;;;;2.63;2.10;;;15.30;99.90;;;;;;5018174;28;20115;-87
2023/07/26 00:09:02;;;;;;;3.40;2.10;;;15.20;99.90;;;;;;5034947;28;20037;-86
2023/07/26 00:11:29;;;;;;;4.43;1.95;;;15.00;99.90;;;;;;5034430;28;20045;-87
2023/07/26 00:13:54;;;;;;;3.42;1.85;;;15.30;99.90;;;;;;5042477;28;20038;-87
2023/07/26 00:16:20;;;;;;;2.63;2.17;;;15.30;99.90;;;;;;5034443;28;20095;-86
2023/07/26 00:18:46;;;;;;;4.65;2.28;;;15.20;99.90;;;;;;5034081;28;20159;-87
2023/07/26 00:21:12;;;;;;;3.53;2.08;;;15.40;99.90;;;;;;5022935;28;20381;-87
2023/07/26 00:23:37;;;;;;;5.05;1.95;;;15.40;99.90;;;;;;4998247;28;20505;-87
2023/07/26 00:26:06;;;;;;;4.57;2.05;;;15.40;99.90;;;;;;5030088;28;20041;-87
2023/07/26 00:28:32;;;;;;;2.83;1.80;;;15.50;99.90;;;;;;5031356;28;20705;-86
2023/07/26 00:31:04;;;;;;;2.83;1.60;;;15.40;99.90;;;;;;5033897;28;20037;-86
2023/07/26 00:33:30;;;;;;;2.20;1.65;;;15.40;99.90;;;;;;5030009;28;20499;-88
2023/07/26 00:35:56;;;;;;;2.88;1.80;;;15.30;99.90;;;;;;5030613;28;20102;-88
2023/07/26 00:38:22;;;;;;;3.03;1.65;;;15.30;99.90;;;;;;5009320;28;20041;-87
2023/07/26 00:40:48;;;;;;;5.22;2.25;;;15.30;99.90;;;;;;5016912;28;20172;-87
2023/07/26 00:43:14;;;;;;;2.53;1.88;;;15.30;99.90;;;;;;5034238;28;20036;-88
2023/07/26 00:45:42;;;;;;;5.40;2.13;;;15.30;99.90;;;;;;5017593;28;20037;-87
2023/07/26 00:48:10;;;;;;;4.93;2.63;;;15.30;99.90;;;;;;5033674;28;20128;-88
2023/07/26 00:50:37;;;;;;;3.20;2.28;;;15.30;99.90;;;;;;5034529;28;20044;-87
2023/07/26 00:53:04;;;;;;;2.97;2.40;;;15.30;99.90;;;;;;5033331;28;20051;-88
2023/07/26 00:55:32;;;;;;;3.30;2.30;;;15.30;99.90;;;;;;5025225;28;20044;-88
2023/07/26 00:57:59;;;;;;;4.53;2.42;;;15.30;99.90;;;;;;5016937;28;20045;-88
2023/07/26 01:00:25;;;;;;;2.85;2.10;;;15.20;99.90;;;;;;5025932;28;20044;-88
2023/07/26 01:02:51;;;;;;;4.18;2.10;;;16.10;99.90;;;;;;5001208;28;20033;-88
2023/07/26 01:05:18;;;;;;;3.45;2.10;;;15.20;99.90;;;;;;5013985;28;20094;-88
2023/07/26 01:08:09;;;;;;;2.60;1.98;;;15.20;99.90;;;;;;5035703;28;20132;-88
2023/07/26 01:10:57;;;;;;;4.53;2.20;;;15.30;99.90;;;;;;5034126;28;20127;-88
2023/07/26 01:13:45;;;;;;;4.93;2.20;;;15.30;99.90;;;;;;5034292;28;20372;-87
2023/07/26 01:16:12;;;;;;;9.40;2.70;;;15.20;99.90;;;;;;5020095;28;20116;-88
2023/07/26 01:18:38;;;;;;;2.65;1.92;;;15.30;99.90;;;;;;5033878;28;20049;-88
2023/07/26 01:21:05;;;;;;;3.42;2.30;;;15.30;99.90;;;;;;5018144;28;20033;-88
2023/07/26 01:23:31;;;;;;;4.43;2.05;;;15.30;99.90;;;;;;5013549;28;20034;-88
2023/07/26 01:25:57;;;;;;;4.05;1.88;;;15.30;99.90;;;;;;4998918;28;20040;-88
2023/07/26 01:28:26;;;;;;;2.97;2.10;;;15.30;99.90;;;;;;5034214;28;20056;-87
2023/07/26 01:30:52;;;;;;;3.97;1.98;;;15.30;99.90;;;;;;5049039;28;20049;-88
2023/07/26 01:33:20;;;;;;;4.45;2.42;;;15.20;99.90;;;;;;5014176;28;20037;-87
2023/07/26 01:35:47;;;;;;;2.35;2.00;;;15.30;99.90;;;;;;5033572;28;20044;-87
2023/07/26 01:38:15;;;;;;;3.47;1.90;;;15.20;99.90;;;;;;5016958;28;20569;-87
2023/07/26 01:40:41;;;;;;;3.13;2.20;;;15.30;99.90;;;;;;5013220;28;20099;-88
2023/07/26 01:43:07;;;;;;;3.95;2.28;;;15.40;99.90;;;;;;5032242;28;20037;-88
2023/07/26 01:45:33;;;;;;;3.33;2.30;;;15.30;99.90;;;;;;5034404;28;20473;-88
2023/07/26 01:47:59;;;;;;;4.43;2.17;;;15.30;99.90;;;;;;5001328;28;20044;-88
2023/07/26 01:50:25;;;;;;;5.25;2.10;;;15.30;99.90;;;;;;5033294;28;20037;-88
2023/07/26 01:52:51;;;;;;;4.97;2.55;;;15.30;99.90;;;;;;5004989;28;20086;-88
2023/07/26 01:55:23;;;;;;;4.80;2.25;;;15.20;99.90;;;;;;5036945;28;20044;-88
2023/07/26 01:57:49;;;;;;;7.40;2.10;;;15.20;99.90;;;;;;5018171;28;20068;-88
2023/07/26 02:00:15;;;;;;;4.97;2.08;;;15.10;99.90;;;;;;5036326;28;20076;-88
2023/07/26 02:02:40;;;;;;;6.50;2.15;;;15.10;99.90;;;;;;5037661;28;20037;-89
2023/07/26 02:05:07;;;;;;;3.88;1.88;;;15.10;99.90;;;;;;5020884;28;20405;-89
2023/07/26 02:07:33;;;;;;;2.95;2.00;;;15.30;99.90;;;;;;5037045;28;20477;-88
2023/07/26 02:10:02;;;;;;;4.45;2.30;;;15.00;99.90;;;;;;5037277;28;20124;-88
2023/07/26 02:12:34;;;;;;;3.42;2.28;;;14.80;99.90;;;;;;5037341;28;20150;-88
2023/07/26 02:15:06;;;;;;;6.20;2.63;;;14.90;99.90;;;;;;5037300;28;20044;-87
2023/07/26 02:17:31;;;;;;;4.75;2.55;;;14.80;99.90;;;;;;5033474;28;20037;-88
2023/07/26 02:19:57;;;;;;;3.70;2.83;;;14.70;99.90;;;;;;5038553;28;20068;-87
2023/07/26 02:22:24;;;;;;;4.88;2.58;;;14.60;99.90;;;;;;5023504;28;20096;-87
2023/07/26 02:24:50;;;;;;;5.28;3.00;;;14.50;99.90;;;;;;5031244;28;20033;-88
2023/07/26 02:27:16;;;;;;;7.45;3.25;;;14.50;99.90;;;;;;5037704;28;20105;-88
2023/07/26 02:29:42;;;;;;;6.82;3.03;;;14.40;99.90;;;;;;5049151;28;20080;-87
2023/07/26 02:32:09;;;;;;;6.53;3.50;;;14.40;99.90;;;;;;5042270;28;20037;-87
2023/07/26 02:34:36;;;;;;;6.18;3.65;;;14.30;99.90;;;;;;5040194;28;20044;-88
2023/07/26 02:37:03;;;;;;;4.15;3.08;;;14.40;99.90;;;;;;5019525;28;20079;-88
2023/07/26 02:39:29;;;;;;;6.68;3.33;;;14.20;99.90;;;;;;5048221;28;20116;-88
2023/07/26 02:41:55;;;;;;;6.10;3.05;;;14.10;99.90;;;;;;5037423;28;20045;-89
2023/07/26 02:44:22;;;;;;;4.50;3.03;;;14.10;99.90;;;;;;5036804;28;20150;-88
2023/07/26 02:46:48;;;;;;;6.50;2.92;;;14.20;99.90;;;;;;5036462;28;20511;-88
2023/07/26 02:49:14;;;;;;;5.95;2.80;;;14.20;99.90;;;;;;5017469;28;20112;-87
2023/07/26 02:51:41;;;;;;;3.97;2.75;;;14.20;99.90;;;;;;5028419;28;20052;-88
2023/07/26 02:54:07;;;;;;;3.42;2.30;;;14.10;99.90;;;;;;5036494;28;20073;-89
2023/07/26 02:56:33;;;;;;;6.05;2.95;;;14.10;99.90;;;;;;5020099;28;20076;-88
2023/07/26 02:58:59;;;;;;;5.93;2.88;;;14.10;99.90;;;;;;5027886;28;20120;-89
2023/07/26 03:01:25;;;;;;;4.50;2.90;;;14.00;99.90;;;;;;5017037;28;20553;-88
2023/07/26 03:03:51;;;;;;;4.70;2.70;;;13.90;99.90;;;;;;5011354;28;20030;-89
2023/07/26 03:06:18;;;;;;;3.60;2.72;;;13.90;99.90;;;;;;5018236;28;20037;-88
2023/07/26 03:08:44;;;;;;;4.57;2.50;;;14.30;99.90;;;;;;5019422;28;20032;-89
2023/07/26 03:11:25;;;;;;;5.15;2.70;;;14.00;99.90;;;;;;5017318;28;20040;-89
2023/07/26 03:13:52;;;;;;;4.10;2.80;;;13.90;99.90;;;;;;5022635;28;20128;-89
2023/07/26 03:16:18;;;;;;;4.85;3.15;;;13.90;99.90;;;;;;5011281;28;20052;-89
2023/07/26 03:18:44;;;;;;;4.88;2.78;;;14.00;99.90;;;;;;5032633;28;20038;-88
2023/07/26 03:21:10;;;;;;;4.70;3.15;;;14.00;99.90;;;;;;5024848;28;20116;-88
2023/07/26 03:23:38;;;;;;;4.55;2.70;;;13.90;99.90;;;;;;5034178;28;20124;-89
2023/07/26 03:26:04;;;;;;;4.95;3.05;;;13.90;99.90;;;;;;5035069;28;20049;-89
2023/07/26 03:28:30;;;;;;;6.75;3.60;;;14.10;99.90;;;;;;5035091;28;20159;-89
2023/07/26 03:30:56;;;;;;;7.43;3.40;;;14.20;99.90;;;;;;5034355;28;20102;-88
2023/07/26 03:33:23;;;;;;;5.40;3.50;;;14.20;99.90;;;;;;4995971;28;20389;-89
2023/07/26 03:35:49;;;;;;;5.18;3.38;;;13.60;99.90;;;;;;5037638;28;20048;-88
2023/07/26 03:38:15;;;;;;;10.60;3.67;;;14.20;99.90;;;;;;5055605;28;20402;-88
2023/07/26 03:40:41;;;;;;;6.20;3.33;;;14.10;99.90;;;;;;5056109;28;20082;-88
2023/07/26 03:43:08;;;;;;;5.32;3.40;;;14.30;99.90;;;;;;5026398;28;20116;-89
2023/07/26 03:45:34;;;;;;;8.02;4.35;;;14.20;99.90;;;;;;5019037;28;20033;-89
2023/07/26 03:48:00;;;;;;;5.95;3.88;;;14.20;99.90;;;;;;5018545;28;20179;-89
2023/07/26 03:50:26;;;;;;;5.88;3.85;;;14.20;99.90;;;;;;5019323;28;20700;-89
2023/07/26 03:52:52;;;;;;;6.18;3.90;;;14.30;99.90;;;;;;5035237;28;20037;-89
2023/07/26 03:55:18;;;;;;;9.02;4.15;;;14.20;99.90;;;;;;5035426;28;20033;-89
2023/07/26 03:57:44;;;;;;;6.60;3.63;;;14.20;99.90;;;;;;5002270;28;20045;-88
2023/07/26 04:00:10;;;;;;;7.28;4.47;;;14.60;99.90;;;;;;5035179;28;20076;-88
2023/07/26 04:02:36;;;;;;;8.63;4.50;;;14.40;99.90;;;;;;5035583;28;20037;-88
2023/07/26 04:05:02;;;;;;;6.57;3.90;;;14.30;99.90;;;;;;5018487;28;20048;-88
2023/07/26 04:07:28;;;;;;;7.82;3.60;;;14.30;99.90;;;;;;5035201;28;20036;-88
2023/07/26 04:09:54;;;;;;;6.07;3.75;;;14.30;99.90;;;;;;5018725;28;20159;-87
2023/07/26 04:12:20;;;;;;;6.07;4.03;;;14.30;99.90;;;;;;5024318;28;20037;-87
2023/07/26 04:14:46;;;;;;;5.13;4.60;;;14.40;99.90;;;;;;5033904;28;20041;-87
2023/07/26 04:17:15;;;;;;;5.18;3.88;;;14.20;99.90;;;;;;5018166;28;20053;-87
2023/07/26 04:19:41;;;;;;;6.63;4.15;;;14.10;99.90;;;;;;5018828;28;20041;-88
2023/07/26 04:22:07;;;;;;;6.75;4.00;;;14.30;99.90;;;;;;5022610;28;20120;-87
2023/07/26 04:24:34;;;;;;;5.88;4.70;;;14.40;99.90;;;;;;5030706;28;20115;-88
2023/07/26 04:27:00;;;;;;;6.03;4.22;;;14.20;99.90;;;;;;5032298;28;20634;-88
2023/07/26 04:29:31;;;;;;;6.55;3.85;;;14.40;99.90;;;;;;5004624;28;20045;-88
2023/07/26 04:31:57;;;;;;;5.53;4.15;;;14.40;99.90;;;;;;5033588;28;20044;-88
2023/07/26 04:34:23;;;;;;;5.72;3.90;;;14.40;99.90;;;;;;5034407;28;20036;-87
2023/07/26 04:36:49;;;;;;;5.25;4.13;;;14.50;99.90;;;;;;5034434;28;20128;-86
2023/07/26 04:39:15;;;;;;;5.93;4.47;;;14.40;99.90;;;;;;5014596;28;20371;-88
2023/07/26 04:41:41;;;;;;;8.63;4.25;;;14.40;99.90;;;;;;5010600;28;20045;-87
2023/07/26 04:44:08;;;;;;;7.85;4.53;;;13.70;99.90;;;;;;5032828;28;20060;-89
2023/07/26 04:46:33;;;;;;;10.60;4.43;;;14.40;99.90;;;;;;5031375;28;20045;-88
2023/07/26 04:48:59;;;;;;;7.70;4.25;;;14.40;99.90;;;;;;5016407;28;20133;-87
2023/07/26 04:51:25;;;;;;;5.75;4.20;;;14.30;99.90;;;;;;5018010;28;20055;-87
2023/07/26 04:53:51;;;;;;;6.38;3.95;;;14.40;99.90;;;;;;5017847;28;20033;-87
2023/07/26 04:56:16;;;;;;;6.95;4.65;;;14.40;99.90;;;;;;5026058;28;20052;-88
2023/07/26 04:58:44;;;;;;;6.00;3.95;;;14.40;99.90;;;;;;5018142;28;20509;-87
2023/07/26 05:01:11;;;;;;;6.35;4.32;;;14.50;99.90;;;;;;5034497;28;20055;-87
2023/07/26 05:03:38;;;;;;;6.45;4.38;;;14.50;99.90;;;;;;5016300;28;20072;-87
2023/07/26 05:06:04;;;;;;;4.82;4.13;;;14.60;99.90;;;;;;5014164;28;20393;-88
2023/07/26 05:08:30;;;;;;;4.38;3.88;;;14.50;99.90;;;;;;5017988;28;20132;-88
2023/07/26 05:10:57;;;;;;;6.15;4.57;;;14.60;99.90;;;;;;5025748;28;20048;-88
2023/07/26 05:13:24;;;;;;;6.40;4.60;;;14.60;99.90;;;;;;5015441;28;20068;-88
2023/07/26 05:15:50;;;;;;;7.85;4.20;;;14.70;99.90;;;;;;4998529;28;20124;-88
2023/07/26 05:18:15;;;;;;;6.20;4.63;;;14.70;99.90;;;;;;5030415;28;20128;-89
2023/07/26 05:20:44;;;;;;;6.10;4.13;;;14.90;99.90;;;;;;5010206;28;20033;-88
2023/07/26 05:23:10;;;;;;;7.40;4.32;;;15.00;99.90;;;;;;5033322;28;20029;-89
2023/07/26 05:25:39;;;;;;;6.88;4.18;;;15.10;99.90;;;;;;5018078;28;20398;-88
2023/07/26 05:28:05;;;;;;;5.40;4.00;;;15.30;99.90;;;;;;5038199;28;20048;-88
2023/07/26 05:30:31;;;;;;;5.55;4.03;;;15.50;99.90;;;;;;5021370;28;20401;-88
2023/07/26 05:32:57;;;;;;;7.22;3.65;;;15.60;99.90;;;;;;5021911;28;20037;-89
2023/07/26 05:35:23;;;;;;;6.70;3.85;;;15.60;99.90;;;;;;5013265;28;20107;-88
2023/07/26 05:37:50;;;;;;;5.18;3.85;;;15.60;99.90;;;;;;5021785;28;20061;-87
2023/07/26 05:40:16;;;;;;;7.68;3.50;;;15.70;99.90;;;;;;5035680;28;20472;-88
2023/07/26 05:42:42;;;;;;;5.88;3.70;;;15.70;99.90;;;;;;5054613;28;20041;-88
2023/07/26 05:45:08;;;;;;;8.07;3.85;;;15.80;99.90;;;;;;5005574;28;20477;-89
2023/07/26 05:47:38;;;;;;;5.13;3.40;;;16.00;99.90;;;;;;5037331;28;20397;-88
2023/07/26 05:50:07;;;;;;;5.50;3.38;;;16.00;99.90;;;;;;5002177;28;20108;-87
2023/07/26 05:52:33;;;;;;;6.63;3.35;;;16.30;99.90;;;;;;5002818;28;20049;-89
2023/07/26 05:55:01;;;;;;;3.78;2.92;;;16.20;99.90;;;;;;5029826;28;20692;-88
2023/07/26 05:57:27;;;;;;;7.13;2.90;;;16.40;99.90;;;;;;5037011;28;20107;-89
2023/07/26 05:59:54;;;;;;;4.47;2.78;;;16.40;99.90;;;;;;5021494;28;20037;-91
2023/07/26 06:02:21;;;;;;;3.80;2.80;;;16.10;99.90;;;;;;5031941;28;20071;-89
2023/07/26 06:04:47;;;;;;;4.60;2.45;;;16.20;99.90;;;;;;5057995;28;20044;-89
2023/07/26 06:07:15;;;;;;;4.15;2.40;;;16.20;99.90;;;;;;5042225;28;20029;-89
2023/07/26 06:09:41;;;;;;;3.60;2.20;;;16.40;99.90;;;;;;5028227;28;20021;-88
2023/07/26 06:12:13;;;;;;;3.50;2.25;;;16.30;99.90;;;;;;5042692;28;20048;-89
2023/07/26 06:14:39;;;;;;;5.10;2.33;;;16.30;99.90;;;;;;5035257;28;20045;-89
2023/07/26 06:17:05;;;;;;;6.28;3.10;;;16.10;99.90;;;;;;5006502;28;20043;-89
2023/07/26 06:19:31;;;;;;;4.80;2.97;;;16.20;99.90;;;;;;5038746;28;20096;-89
2023/07/26 06:21:57;;;;;;;4.85;2.47;;;16.10;99.90;;;;;;5051989;28;20105;-90
2023/07/26 06:24:29;;;;;;;5.03;2.50;;;16.00;99.90;;;;;;5031869;28;20182;-89
2023/07/26 06:27:04;;;;;;;4.30;2.28;;;16.00;99.90;;;;;;5038404;28;20040;-89
2023/07/26 06:29:30;;;;;;;3.45;2.40;;;16.00;99.90;;;;;;5037395;28;20067;-89
2023/07/26 06:32:03;;;;;;;3.45;2.50;;;16.10;99.90;;;;;;5037147;28;20041;-91
2023/07/26 06:34:34;;;;;;;3.50;2.33;;;15.90;99.90;;;;;;5038268;28;20393;-90
2023/07/26 06:37:00;;;;;;;4.38;2.40;;;15.80;99.90;;;;;;5020512;28;20454;-90
2023/07/26 06:39:26;;;;;;;3.70;2.63;;;15.80;99.90;;;;;;5004433;28;20076;-90
2023/07/26 06:41:55;;;;;;;6.28;2.50;;;16.00;99.90;;;;;;5037314;28;20044;-89
2023/07/26 06:44:21;;;;;;;4.32;2.30;;;16.00;99.90;;;;;;5021859;28;20102;-90
2023/07/26 06:46:54;;;;;;;3.00;2.50;;;16.20;99.90;;;;;;5031613;28;20485;-90
2023/07/26 06:49:20;;;;;;;3.35;2.05;;;16.50;99.90;;;;;;5019942;28;20570;-91
2023/07/26 06:51:46;;;;;;;4.28;2.40;;;16.70;99.90;;;;;;5005599;28;20126;-90
2023/07/26 06:54:12;;;;;;;4.13;2.30;;;16.70;99.90;;;;;;5036853;28;20045;-90
2023/07/26 06:56:41;;;;;;;3.20;2.20;;;16.90;99.90;;;;;;5028984;28;20048;-89
2023/07/26 06:59:11;;;;;;;3.10;2.08;;;17.10;99.90;;;;;;5035507;28;20442;-90
2023/07/26 07:01:37;;;;;;;2.40;2.20;;;17.30;99.90;;;;;;5023399;28;20072;-90
2023/07/26 07:04:02;;;;;;;4.32;2.03;;;17.50;99.90;;;;;;5038047;28;20037;-90
2023/07/26 07:06:31;;;;;;;3.08;1.95;;;17.40;99.90;;;;;;5021575;28;20104;-90
2023/07/26 07:09:04;;;;;;;3.30;1.80;;;17.50;99.90;;;;;;5024889;28;20049;-89
2023/07/26 07:11:30;;;;;;;3.00;1.70;;;17.50;99.90;;;;;;5027538;28;20033;-89
2023/07/26 07:13:57;;;;;;;2.95;1.95;;;17.20;99.90;;;;;;5025793;28;20094;-90
2023/07/26 07:16:23;;;;;;;3.97;1.73;;;17.30;99.90;;;;;;5026195;28;20040;-90
2023/07/26 07:18:49;;;;;;;3.13;1.63;;;17.40;99.90;;;;;;5020809;28;20106;-89
2023/07/26 07:21:15;;;;;;;2.30;1.95;;;17.50;99.90;;;;;;5022377;28;20041;-90
2023/07/26 07:23:43;;;;;;;3.47;1.98;;;17.60;99.90;;;;;;5020421;28;20477;-91
2023/07/26 07:26:13;;;;;;;2.25;1.67;;;17.70;99.90;;;;;;5021928;28;20040;-90
2023/07/26 07:28:47;;;;;;;3.15;2.45;;;18.20;99.90;;;;;;5029819;28;20056;-90
2023/07/26 07:31:13;;;;;;;3.75;1.90;;;18.10;99.90;;;;;;5026429;28;20668;-91
2023/07/26 07:33:45;;;;;;;2.65;1.75;;;18.20;99.90;;;;;;5029215;28;20124;-91
2023/07/26 07:36:17;;;;;;;2.58;1.60;;;18.30;99.90;;;;;;5021794;28;20052;-92
2023/07/26 07:39:20;;;;;;;2.75;1.88;;;17.10;99.90;;;;;;5018355;28;20048;-92
2023/07/26 07:42:04;;;;;;;2.78;1.92;;;17.60;99.90;;;;;;5034676;28;20041;-91
2023/07/26 07:44:30;;;;;;;2.95;1.92;;;17.80;99.90;;;;;;5020621;28;20096;-91
2023/07/26 07:46:58;;;;;;;3.63;2.10;;;17.70;99.90;;;;;;5036956;28;20040;-90
2023/07/26 07:49:24;;;;;;;3.15;2.13;;;17.40;99.90;;;;;;5036183;28;20045;-90
2023/07/26 07:51:50;;;;;;;2.95;1.70;;;18.10;99.90;;;;;;5035508;28;20045;-91
2023/07/26 07:54:16;;;;;;;3.08;2.00;;;18.10;99.90;;;;;;5002097;28;20404;-89
2023/07/26 07:56:43;;;;;;;2.53;1.67;;;18.00;99.90;;;;;;5016830;28;20045;-89
2023/07/26 07:59:08;;;;;;;2.78;1.48;;;18.30;99.90;;;;;;5016427;28;20390;-90
2023/07/26 08:01:34;;;;;;;2.25;1.67;;;18.30;99.90;;;;;;5016325;28;20044;-89
2023/07/26 08:04:03;;;;;;;2.85;1.30;;;18.50;99.90;;;;;;5016361;28;20129;-90
2023/07/26 08:06:32;;;;;;;1.75;1.40;;;18.30;99.90;;;;;;5018333;28;20040;-92
2023/07/26 08:08:58;;;;;;;2.17;1.40;;;18.50;99.90;;;;;;5013025;28;20230;-93
2023/07/26 08:11:24;;;;;;;2.30;1.50;;;18.40;99.90;;;;;;5016226;28;20477;-92
2023/07/26 08:13:53;;;;;;;2.65;1.50;;;18.30;99.90;;;;;;5018274;28;20551;-91
2023/07/26 08:16:18;;;;;;;2.22;1.48;;;17.90;99.90;;;;;;5019310;28;20070;-92
2023/07/26 08:18:45;;;;;;;2.58;1.60;;;18.40;99.90;;;;;;5035661;28;20037;-91
2023/07/26 08:21:17;;;;;;;7.95;1.58;;;18.40;99.90;;;;;;5034942;28;20043;-91
2023/07/26 08:23:43;;;;;;;3.47;1.60;;;18.40;99.90;;;;;;5035149;28;20040;-90
2023/07/26 08:26:09;;;;;;;2.00;1.50;;;18.50;99.90;;;;;;5015133;28;20068;-90
2023/07/26 08:28:35;;;;;;;2.17;1.88;;;18.50;99.90;;;;;;5043993;28;20147;-86
2023/07/26 08:31:24;;;;;;;1.92;1.65;;;18.50;99.90;;;;;;5031526;28;20037;-90
2023/07/26 08:33:55;;;;;;;3.05;1.67;;;18.50;99.90;;;;;;5026146;28;20052;-90
2023/07/26 08:36:21;;;;;;;2.03;1.58;;;18.60;99.90;;;;;;5036732;28;20097;-91
2023/07/26 08:38:47;;;;;;;1.90;1.35;;;18.80;99.90;;;;;;5016777;28;20127;-90
2023/07/26 08:41:14;;;;;;;2.22;1.70;;;18.90;99.90;;;;;;5019015;28;20029;-90
2023/07/26 08:43:42;;;;;;;1.77;1.55;;;19.20;99.90;;;;;;5010642;28;20038;-90
2023/07/26 08:46:09;;;;;;;2.08;1.50;;;19.10;99.90;;;;;;5035430;28;20620;-88
2023/07/26 08:48:37;;;;;;;1.98;1.58;;;19.20;99.90;;;;;;5034865;28;20047;-90
2023/07/26 08:51:05;;;;;;;1.88;1.48;;;19.20;99.90;;;;;;5030723;28;20037;-90
2023/07/26 08:53:31;;;;;;;2.00;1.40;;;19.20;99.90;;;;;;5013996;28;20052;-89
2023/07/26 08:55:57;;;;;;;2.80;1.75;;;19.50;99.90;;;;;;5020563;28;20041;-92
2023/07/26 08:58:22;;;;;;;1.98;1.60;;;19.80;99.90;;;;;;5021574;28;20049;-89
2023/07/26 09:00:51;;;;;;;3.25;1.60;;;19.90;99.90;;;;;;5016384;28;20037;-90
2023/07/26 09:03:17;;;;;;;2.67;1.70;;;20.10;99.90;;;;;;5050561;28;20033;-92
2023/07/26 09:05:45;;;;;;;3.22;1.92;;;20.10;99.90;;;;;;5020425;28;20045;-91
2023/07/26 09:08:11;;;;;;;2.92;1.90;;;20.40;99.90;;;;;;5036333;28;20045;-91
2023/07/26 09:10:40;;;;;;;2.63;1.80;;;19.90;99.90;;;;;;5020187;28;20535;-92
2023/07/26 09:13:11;;;;;;;3.45;2.00;;;19.90;99.90;;;;;;5000017;28;20393;-92
2023/07/26 09:15:45;;;;;;;2.28;1.98;;;19.70;99.90;;;;;;5036565;28;20071;-90
2023/07/26 09:18:12;;;;;;;3.03;2.28;;;19.80;99.90;;;;;;5035954;28;20041;-91
2023/07/26 09:20:41;;;;;;;2.17;1.80;;;19.80;99.90;;;;;;5034794;28;20443;-91
2023/07/26 09:23:08;;;;;;;3.17;2.17;;;19.30;99.90;;;;;;5019638;28;20041;-91
2023/07/26 09:25:46;;;;;;;2.75;2.10;;;20.30;99.90;;;;;;5035184;28;20048;-90
2023/07/26 09:28:14;;;;;;;2.30;2.05;;;20.30;99.90;;;;;;5035497;28;20106;-90
2023/07/26 09:30:45;;;;;;;2.63;2.08;;;20.80;99.90;;;;;;5035950;28;20053;-91
2023/07/26 09:33:12;;;;;;;2.90;2.17;;;20.50;99.90;;;;;;5035396;28;20037;-91
2023/07/26 09:35:48;;;;;;;3.00;2.00;;;20.80;99.90;;;;;;5035733;28;20037;-90
2023/07/26 09:38:16;;;;;;;2.55;2.08;;;21.20;99.90;;;;;;5009636;28;20530;-90
2023/07/26 09:40:42;;;;;;;3.00;1.95;;;21.30;99.90;;;;;;5030105;28;20050;-91
2023/07/26 09:43:08;;;;;;;2.55;1.92;;;21.50;99.90;;;;;;5051629;28;20391;-88
2023/07/26 09:45:36;;;;;;;3.30;1.90;;;21.50;99.90;;;;;;5029610;28;20050;-88
2023/07/26 09:48:11;;;;;;;2.92;2.05;;;21.80;99.90;;;;;;5037017;28;20119;-89
2023/07/26 09:50:41;;;;;;;2.67;1.73;;;21.40;99.90;;;;;;5023746;28;20048;-87
2023/07/26 09:53:40;;;;;;;3.83;1.73;;;21.50;99.90;;;;;;5023611;28;20049;-88
2023/07/26 10:00:29;;;;;;;;;;;;;;;;;;;;;
2023/07/26 10:03:21;;;;;;;2.10;1.80;;;22.50;99.90;;;;;;4973505;28;20037;-91
2023/07/26 10:05:50;;;;;;;4.05;1.90;;;22.30;99.90;;;;;;4939564;28;20073;-88
2023/07/26 10:08:19;;;;;;;2.40;1.90;;;22.80;99.90;;;;;;5023123;28;20045;-92
2023/07/26 10:10:47;;;;;;;2.05;1.80;;;23.20;99.90;;;;;;5036328;28;20033;-87
2023/07/26 10:13:20;;;;;;;3.65;2.00;;;23.40;99.90;;;;;;5058708;28;20036;-89
2023/07/26 10:15:50;;;;;;;5.07;2.15;;;22.60;99.90;;;;;;5006319;28;20774;-90
2023/07/26 10:18:19;;;;;;;3.92;1.50;;;22.40;99.90;;;;;;5038822;28;20120;-92
2023/07/26 10:20:49;;;;;;;3.35;1.83;;;21.40;99.90;;;;;;5024986;28;20151;-91
2023/07/26 10:23:16;;;;;;;3.00;1.70;;;20.80;99.90;;;;;;5005114;28;20037;-91
2023/07/26 10:25:43;;;;;;;2.17;1.50;;;20.40;99.90;;;;;;5040777;28;20063;-92
2023/07/26 10:28:11;;;;;;;2.58;1.98;;;20.70;99.90;;;;;;5062107;28;20044;-88
2023/07/26 10:30:38;;;;;;;2.40;2.00;;;21.00;99.90;;;;;;5039057;28;20053;-90
2023/07/26 10:33:13;;;;;;;3.20;2.05;;;21.30;99.90;;;;;;5021917;28;20037;-89
2023/07/26 10:35:44;;;;;;;2.25;1.77;;;21.20;99.90;;;;;;5038341;28;20063;-91
2023/07/26 10:38:15;;;;;;;2.75;1.88;;;20.70;99.90;;;;;;5022924;28;20063;-91
2023/07/26 10:41:19;;;;;;;2.15;1.58;;;21.00;99.90;;;;;;5036626;28;20037;-90
2023/07/26 10:43:49;;;;;;;2.45;1.80;;;20.80;99.90;;;;;;5034402;28;20045;-90
2023/07/26 10:46:15;;;;;;;1.73;1.48;;;20.60;99.90;;;;;;5037653;28;20040;-91
2023/07/26 10:48:42;;;;;;;2.45;1.73;;;21.10;99.90;;;;;;5024970;28;20049;-89
2023/07/26 10:51:45;;;;;;;2.08;1.75;;;21.40;99.90;;;;;;5041850;28;20041;-90
2023/07/26 10:54:50;;;;;;;3.30;2.10;;;21.90;99.90;;;;;;5032576;28;20036;-90
2023/07/26 10:57:28;;;;;;;2.17;1.67;;;21.80;99.90;;;;;;5033941;28;20041;-90
2023/07/26 11:00:38;;;;;;;2.00;1.80;;;22.20;99.90;;;;;;5036952;28;20060;-90
2023/07/26 11:03:05;;;;;;;2.40;1.67;;;22.50;99.90;;;;;;5000289;28;20402;-89
2023/07/26 11:05:32;;;;;;;2.45;1.60;;;22.60;99.90;;;;;;4983181;28;20042;-91
2023/07/26 11:08:07;;;;;;;2.63;1.90;;;21.90;99.90;;;;;;4983656;28;20564;-91
2023/07/26 11:10:39;;;;;;;2.38;1.70;;;21.70;99.90;;;;;;4989220;28;20100;-90
2023/07/26 11:13:15;;;;;;;2.38;1.73;;;21.30;99.90;;;;;;4986391;28;20033;-90
2023/07/26 11:15:50;;;;;;;3.63;1.80;;;20.90;99.90;;;;;;4999589;28;20142;-89
2023/07/26 11:18:17;;;;;;;5.07;2.05;;;19.30;99.90;;;;;;4995323;28;20045;-89
2023/07/26 11:20:54;;;;;;;3.47;1.83;;;17.90;99.90;;;;;;4971731;28;20196;-88
2023/07/26 11:23:25;;;;;;;3.97;1.80;;;17.50;99.90;;;;;;4994576;28;20064;-88
2023/07/26 11:25:53;;;;;;;5.03;1.95;;;17.30;99.90;;;;;;4982494;28;20098;-88
2023/07/26 11:28:20;;;;;;;4.03;1.77;;;17.40;99.90;;;;;;4999270;28;20029;-88
2023/07/26 11:30:52;;;;;;;4.97;2.03;;;17.30;99.90;;;;;;4997821;28;20062;-88
2023/07/26 11:33:32;;;;;;;2.65;1.73;;;17.50;99.90;;;;;;4998181;28;20075;-90
2023/07/26 11:36:00;;;;;;;3.95;1.85;;;17.40;99.90;;;;;;4997554;28;20045;-90
2023/07/26 11:38:26;;;;;;;3.10;1.60;;;17.80;99.90;;;;;;4997599;28;20029;-89
2023/07/26 11:40:53;;;;;;;2.63;1.10;;;17.50;99.90;;;;;;4969360;28;20037;-90
2023/07/26 11:43:21;;;;;;;2.10;1.10;;;17.80;99.90;;;;;;4962741;28;20037;-89
2023/07/26 11:45:50;;;;;;;1.45;1.00;;;17.40;99.90;;;;;;4980654;28;20034;-89
2023/07/26 11:48:15;;;;;;;1.77;1.00;;;17.60;99.90;;;;;;5035331;28;20037;-89
2023/07/26 11:50:42;;;;;;;2.22;1.10;;;17.70;99.90;;;;;;5034765;28;20390;-89
2023/07/26 11:53:13;;;;;;;2.03;1.17;;;17.80;99.90;;;;;;5033248;28;20033;-89
2023/07/26 11:55:40;;;;;;;2.63;0.98;;;17.50;99.90;;;;;;5034636;28;20114;-90
2023/07/26 11:58:08;;;;;;;1.63;1.10;;;17.70;99.90;;;;;;5051318;28;20098;-89
2023/07/26 12:00:36;;;;;;;1.95;1.23;;;18.00;99.90;;;;;;5018272;28;20053;-89
2023/07/26 12:03:02;;;;;;;2.85;1.65;;;18.10;99.90;;;;;;5018641;28;20040;-89
2023/07/26 12:05:29;;;;;;;1.92;1.05;;;18.60;99.90;;;;;;5027278;28;20037;-89
2023/07/26 12:08:00;;;;;;;1.77;1.10;;;18.90;99.90;;;;;;5034707;28;20362;-89
2023/07/26 12:10:41;;;;;;;3.45;1.40;;;19.50;99.90;;;;;;5035289;28;20400;-89
2023/07/26 12:13:18;;;;;;;4.88;1.30;;;19.60;99.90;;;;;;5021409;28;20041;-91
2023/07/26 12:16:01;;;;;;;3.95;1.13;;;20.40;99.90;;;;;;5036041;28;20045;-90
2023/07/26 12:18:50;;;;;;;1.40;1.02;;;20.80;99.90;;;;;;5047428;28;20041;-90
2023/07/26 12:21:56;;;;;;;4.10;1.52;;;20.80;99.90;;;;;;5034905;28;20041;-91
2023/07/26 12:24:23;;;;;;;3.58;1.30;;;20.90;99.90;;;;;;5045303;28;20051;-90
2023/07/26 12:26:51;;;;;;;2.40;1.50;;;21.40;99.90;;;;;;5021931;28;20033;-91
2023/07/26 12:29:33;;;;;;;1.95;1.45;;;21.70;99.90;;;;;;5033514;28;20088;-90
2023/07/26 12:32:03;;;;;;;1.58;1.23;;;21.80;99.90;;;;;;5037841;28;20164;-90
2023/07/26 12:34:41;;;;;;;1.90;1.40;;;22.40;99.90;;;;;;5020455;28;20048;-89
2023/07/26 12:37:07;;;;;;;2.90;1.48;;;22.20;99.90;;;;;;5003963;28;20087;-89
2023/07/26 12:39:33;;;;;;;3.35;1.77;;;22.10;99.90;;;;;;5017809;28;20041;-90
2023/07/26 12:42:00;;;;;;;2.03;1.50;;;22.20;99.90;;;;;;5035372;28;20041;-89
2023/07/26 12:44:27;;;;;;;2.53;1.40;;;22.10;99.90;;;;;;5033582;28;20084;-89
2023/07/26 12:46:54;;;;;;;2.65;1.50;;;21.80;99.90;;;;;;5035927;28;20033;-89
2023/07/26 12:49:25;;;;;;;2.60;1.58;;;21.70;99.90;;;;;;5012084;28;20033;-88
2023/07/26 12:51:51;;;;;;;5.43;1.63;;;21.20;99.90;;;;;;5021503;28;20078;-91
2023/07/26 12:54:18;;;;;;;3.85;1.55;;;21.10;99.90;;;;;;5026600;28;20091;-90
2023/07/26 12:56:44;;;;;;;2.75;1.25;;;20.80;99.90;;;;;;5035832;28;20041;-90
2023/07/26 12:59:10;;;;;;;1.67;1.23;;;21.20;99.90;;;;;;5033962;28;20505;-90
2023/07/26 13:01:36;;;;;;;1.88;1.30;;;21.20;99.90;;;;;;5016506;28;20043;-90